Portada
METAR-TAF:

METAR-TAF

Aeroports :

Al-Kharj, Aràbia Saudita

latitud: 24-03-19N, longitud: 047-33-49E, altitud: 503 m

Observació

L'informe es va fer fa 37 minuts, a les 12:00 UTC
Vent 12 kt del Nord-Est
Temperatura 48°C
Humitat 9%
Pressió 1001 hPa
Visibilitat 10 km o més
sense núvols per sota de 1500 mi sense presència de cumulonimbus.

METAR: OEKJ 081200Z 04012KT CAVOK 48/07 Q1001

Hora: 15:37 (12:37 UTC)

Pronòstic

L'informe es va fer fa 1 hora i 37 minuts, a les 11:00 UTC
Pronòstic vàlid del 08 a les 12 UTC al 09 a les 18 UTC
Vent 12 kt del Nord/Nord-Est
Visibilitat 10 km o més
sense núvols per sota de 1500 mi sense presència de cumulonimbus.
Evolucionant progressivament
l' 08 a les 21 UTC al 08 a les 23 UTC
Vent 3 kt amb direcció variable
Evolucionant progressivament
l' 09 a les 09 UTC al 09 a les 10 UTC
Vent 12 kt del Nord/Nord-Est

TAF: OEKJ 081100Z 0812/0918 03012KT CAVOK BECMG 0821/0823 VRB03KT BECMG 0909/0910 03012KT

Observacions i pronòstics meteorològics de més de 4000 aeroports (METAR i TAF).

Les estacions disponibles són els punts grocs i vermells al mapa.

Posi el ratolí al punt desitjat per veure el nom de l'estació.

Feu clic per veure les observacions i els pronòstics meteorològics.

Per canviar el mapa: feu clic els botons verds amb una creu de color negre per apropar; al botó verd amb un guió per allunyar la imatge; o en les fletxes verdes per a mapes adjacents.


METAR-TAF: